Jones Crossroads, South Carolina
Current Conditions -  °F | °C
As of 1:35 PM on Saturday 25 Oct 2014 (Local Time) from KAIK Reporting Station
Clear Clear  
Wind Chill: 72°   Ceiling: Unl
Heat Index: 72°   Visibility: 10mi
Dew Point: 50°   Wind: 0mph
Humidity: 46%   Direction: NA
Pressure: 30.05"   Gusts: NA
Location:  33.7495°N, 81.5464°W
Report Text: KAIK 251735Z AUTO 00000KT 10SM CLR 22/10 A3005 RMK AO2 PNO
Loading
Personal Weather Stations






























Interactive Weather Map
Tropical Storm Tracking
New forecast layout! Learn more

10-Day Weather Forecast

Advertisements
Track Severe Weather on mobile